createdAt,value
2018-06-17T00:00:43.415Z,85.96
2018-06-17T00:01:43.594Z,86.82
2018-06-17T00:02:43.797Z,87.01
2018-06-17T00:03:43.974Z,86.72
2018-06-17T00:04:44.155Z,87.01
2018-06-17T00:05:44.348Z,86.82
2018-06-17T00:06:44.506Z,87.59
2018-06-17T00:07:44.697Z,87.40
2018-06-17T00:08:44.877Z,87.49
2018-06-17T00:09:45.049Z,87.78
2018-06-17T00:10:45.222Z,86.34
2018-06-17T00:11:45.401Z,87.01
2018-06-17T00:12:45.585Z,86.82
2018-06-17T00:13:45.759Z,86.54
2018-06-17T00:14:45.929Z,86.82
2018-06-17T00:15:46.100Z,86.82
2018-06-17T00:16:46.275Z,86.82
2018-06-17T00:17:46.464Z,87.01
2018-06-17T00:18:46.631Z,87.21
2018-06-17T00:19:46.813Z,87.40
2018-06-17T00:20:46.981Z,87.01
2018-06-17T00:21:47.155Z,87.11
2018-06-17T00:22:47.334Z,87.11
2018-06-17T00:23:47.507Z,87.11
2018-06-17T00:24:47.677Z,87.21
2018-06-17T00:25:47.842Z,87.11
2018-06-17T00:26:48.021Z,87.11
2018-06-17T00:27:48.192Z,87.01
2018-06-17T00:28:48.376Z,86.63
2018-06-17T00:29:48.550Z,86.92
2018-06-17T00:30:48.728Z,86.92
2018-06-17T00:31:48.904Z,86.72
2018-06-17T00:32:49.074Z,86.44
2018-06-17T00:33:49.253Z,86.15
2018-06-17T00:34:49.416Z,86.44
2018-06-17T00:35:49.598Z,86.05
2018-06-17T00:36:49.771Z,87.40
2018-06-17T00:37:49.938Z,87.21
2018-06-17T00:38:50.121Z,87.30
2018-06-17T00:39:50.292Z,87.30
2018-06-17T00:40:50.474Z,87.30
2018-06-17T00:41:50.639Z,87.68
2018-06-17T00:42:50.820Z,86.05
2018-06-17T00:43:50.989Z,86.15
2018-06-17T00:44:51.160Z,86.63
2018-06-17T00:45:51.341Z,87.01
2018-06-17T00:46:51.521Z,86.92
2018-06-17T00:47:51.706Z,86.92
2018-06-17T00:48:51.879Z,87.01
2018-06-17T00:49:52.058Z,86.72
2018-06-17T00:50:52.232Z,86.72
2018-06-17T00:51:52.412Z,86.82
2018-06-17T00:52:52.589Z,86.54
2018-06-17T00:53:52.767Z,86.92
2018-06-17T00:54:52.946Z,87.01
2018-06-17T00:55:53.123Z,87.68
2018-06-17T00:56:53.302Z,87.01
2018-06-17T00:57:53.487Z,87.01
2018-06-17T00:58:53.656Z,87.26
2018-06-17T00:59:53.827Z,86.63
2018-06-17T01:00:53.998Z,86.82
2018-06-17T01:01:54.183Z,87.01
2018-06-17T01:02:54.360Z,86.92
2018-06-17T01:03:54.531Z,86.44
2018-06-17T01:04:54.720Z,86.63
2018-06-17T01:05:54.891Z,86.88
2018-06-17T01:06:55.070Z,86.78
2018-06-17T01:07:55.243Z,86.78
2018-06-17T01:08:55.418Z,87.26
2018-06-17T01:09:55.594Z,87.45
2018-06-17T01:10:55.782Z,87.74
2018-06-17T01:11:55.950Z,87.55
2018-06-17T01:12:56.131Z,87.55
2018-06-17T01:13:56.310Z,88.02
2018-06-17T01:14:56.490Z,87.84
2018-06-17T01:15:56.675Z,88.12
2018-06-17T01:16:56.852Z,87.74
2018-06-17T01:17:57.023Z,87.93
2018-06-17T01:18:57.246Z,88.51
2018-06-17T01:19:57.387Z,88.37
2018-06-17T01:20:57.557Z,88.94
2018-06-17T01:21:57.734Z,88.65
2018-06-17T01:22:57.901Z,89.51
2018-06-17T01:23:58.074Z,89.42
2018-06-17T01:24:58.257Z,89.51
2018-06-17T01:25:58.437Z,89.42
2018-06-17T01:26:58.612Z,89.42
2018-06-17T01:27:58.787Z,89.71
2018-06-17T01:28:58.969Z,89.42
2018-06-17T01:29:59.144Z,89.13
2018-06-17T01:30:59.314Z,88.94
2018-06-17T01:31:59.488Z,88.94
2018-06-17T01:32:59.674Z,88.94
2018-06-17T01:33:59.843Z,89.04
2018-06-17T01:35:00.021Z,88.94
2018-06-17T01:36:00.191Z,89.04
2018-06-17T01:37:00.358Z,88.56
2018-06-17T01:38:00.535Z,88.75
2018-06-17T01:39:00.710Z,89.42
2018-06-17T01:40:00.887Z,89.90
2018-06-17T01:41:01.057Z,90.14
2018-06-17T01:42:01.236Z,90.14
2018-06-17T01:43:01.420Z,90.14
2018-06-17T01:44:01.576Z,89.80
2018-06-17T01:45:01.757Z,90.00
2018-06-17T01:46:01.932Z,89.71
2018-06-17T01:47:02.110Z,89.71
2018-06-17T01:48:02.291Z,89.66
2018-06-17T01:49:02.470Z,89.66
2018-06-17T01:50:02.643Z,89.47
2018-06-17T01:51:02.822Z,89.86
2018-06-17T01:52:03.006Z,89.95
2018-06-17T01:53:03.177Z,89.37
2018-06-17T01:54:03.358Z,89.66
2018-06-17T01:55:03.529Z,89.66
2018-06-17T01:56:03.699Z,89.95
2018-06-17T01:57:03.874Z,89.76
2018-06-17T01:58:04.053Z,89.66
2018-06-17T01:59:04.228Z,89.47
2018-06-17T02:00:04.401Z,89.95
2018-06-17T02:01:04.578Z,89.76
2018-06-17T02:02:04.757Z,89.51
2018-06-17T02:03:04.935Z,89.90
2018-06-17T02:04:05.118Z,89.32
2018-06-17T02:05:05.285Z,89.23
2018-06-17T02:06:05.465Z,89.47
2018-06-17T02:07:05.643Z,89.13
2018-06-17T02:08:05.816Z,89.32
2018-06-17T02:09:05.988Z,88.56
2018-06-17T02:10:06.159Z,88.84
2018-06-17T02:11:06.340Z,88.94
2018-06-17T02:12:06.517Z,88.94
2018-06-17T02:13:06.686Z,88.84
2018-06-17T02:14:06.859Z,88.80
2018-06-17T02:15:07.040Z,89.18
2018-06-17T02:16:07.245Z,88.90
2018-06-17T02:17:07.411Z,89.09
2018-06-17T02:18:07.591Z,89.37
2018-06-17T02:19:07.771Z,89.37
2018-06-17T02:20:07.941Z,88.51
2018-06-17T02:21:08.113Z,88.61
2018-06-17T02:22:08.292Z,88.90
2018-06-17T02:23:08.466Z,88.61
2018-06-17T02:24:08.641Z,89.37
2018-06-17T02:25:08.820Z,89.66
2018-06-17T02:26:09.004Z,89.66
2018-06-17T02:27:09.182Z,91.10
2018-06-17T02:28:09.356Z,91.39
2018-06-17T02:29:09.527Z,91.58
2018-06-17T02:30:09.706Z,91.58
2018-06-17T02:31:09.872Z,92.15
2018-06-17T02:32:10.045Z,91.86
2018-06-17T02:33:10.223Z,92.63
2018-06-17T02:34:10.398Z,92.35
2018-06-17T02:35:10.567Z,92.44
2018-06-17T02:36:10.746Z,92.35
2018-06-17T02:37:10.921Z,92.35
2018-06-17T02:38:11.094Z,92.25
2018-06-17T02:39:11.278Z,92.73
2018-06-17T02:40:11.455Z,92.35
2018-06-17T02:41:11.632Z,92.63
2018-06-17T02:42:11.803Z,91.77
2018-06-17T02:43:11.976Z,92.06
2018-06-17T02:44:12.149Z,91.67
2018-06-17T02:45:12.325Z,92.06
2018-06-17T02:46:12.514Z,92.25
2018-06-17T02:47:12.687Z,92.25
2018-06-17T02:48:12.857Z,90.81
2018-06-17T02:49:13.037Z,90.62
2018-06-17T02:50:13.217Z,90.72
2018-06-17T02:51:13.406Z,90.14
2018-06-17T02:52:13.577Z,90.23
2018-06-17T02:53:13.755Z,90.33
2018-06-17T02:54:13.931Z,90.23
2018-06-17T02:55:14.112Z,90.57
2018-06-17T02:56:14.282Z,90.19
2018-06-17T02:57:14.451Z,90.28
2018-06-17T02:58:14.630Z,90.09
2018-06-17T02:59:14.801Z,89.86
2018-06-17T03:00:14.979Z,89.95
2018-06-17T03:01:15.161Z,90.23
2018-06-17T03:02:15.339Z,90.19
2018-06-17T03:03:15.520Z,90.72
2018-06-17T03:04:15.693Z,90.47
2018-06-17T03:05:15.871Z,90.91
2018-06-17T03:06:16.043Z,90.76
2018-06-17T03:07:16.221Z,91.63
2018-06-17T03:08:16.397Z,90.76
2018-06-17T03:09:16.573Z,91.24
2018-06-17T03:10:16.751Z,90.86
2018-06-17T03:11:16.925Z,91.14
2018-06-17T03:12:17.103Z,90.95
2018-06-17T03:13:17.277Z,90.23
2018-06-17T03:14:17.458Z,90.57
2018-06-17T03:15:17.632Z,91.19
2018-06-17T03:16:17.819Z,90.53
2018-06-17T03:17:17.979Z,90.76
2018-06-17T03:18:18.157Z,90.09
2018-06-17T03:19:18.341Z,90.38
2018-06-17T03:20:18.516Z,89.90
2018-06-17T03:21:18.681Z,89.80
2018-06-17T03:22:18.862Z,89.51
2018-06-17T03:23:19.037Z,89.51
2018-06-17T03:24:19.219Z,89.61
2018-06-17T03:25:19.386Z,89.80
2018-06-17T03:26:19.565Z,90.00
2018-06-17T03:27:19.742Z,89.42
2018-06-17T03:28:19.912Z,89.23
2018-06-17T03:29:20.089Z,89.42
2018-06-17T03:30:20.261Z,89.90
2018-06-17T03:31:20.437Z,89.90
2018-06-17T03:32:20.610Z,90.19
2018-06-17T03:33:20.785Z,89.90
2018-06-17T03:34:20.962Z,89.51
2018-06-17T03:35:21.140Z,90.19
2018-06-17T03:36:21.317Z,89.90
2018-06-17T03:37:21.498Z,89.71
2018-06-17T03:38:21.673Z,89.90
2018-06-17T03:39:21.843Z,89.75
2018-06-17T03:40:22.032Z,89.71
2018-06-17T03:41:22.201Z,89.85
2018-06-17T03:42:22.376Z,89.75
2018-06-17T03:43:22.558Z,89.47
2018-06-17T03:44:22.733Z,89.47
2018-06-17T03:45:22.906Z,89.56
2018-06-17T03:46:23.083Z,89.37
2018-06-17T03:47:23.260Z,89.18
2018-06-17T03:48:23.434Z,89.18
2018-06-17T03:49:23.603Z,88.70
2018-06-17T03:50:23.782Z,88.98
2018-06-17T03:51:23.961Z,89.08
2018-06-17T03:52:24.138Z,89.94
2018-06-17T03:53:24.314Z,89.94
2018-06-17T03:54:24.487Z,91.28
2018-06-17T03:55:24.660Z,91.77
2018-06-17T03:56:24.839Z,91.28
2018-06-17T03:57:25.020Z,91.48
2018-06-17T03:58:25.194Z,91.19
2018-06-17T03:59:25.371Z,90.71
2018-06-17T04:00:25.556Z,90.81
2018-06-17T04:01:25.731Z,91.09
2018-06-17T04:02:25.916Z,90.71
2018-06-17T04:03:26.091Z,91.00
2018-06-17T04:04:26.263Z,90.90
2018-06-17T04:05:26.436Z,90.52
2018-06-17T04:06:26.613Z,90.52
2018-06-17T04:07:26.784Z,90.61
2018-06-17T04:08:26.961Z,91.00
2018-06-17T04:09:27.144Z,90.04
2018-06-17T04:10:27.352Z,90.14
2018-06-17T04:11:27.487Z,90.90
2018-06-17T04:12:27.672Z,90.81
2018-06-17T04:13:27.852Z,90.81
2018-06-17T04:14:28.033Z,90.81
2018-06-17T04:15:28.204Z,91.00
2018-06-17T04:16:28.459Z,91.00
2018-06-17T04:17:28.580Z,90.61
2018-06-17T04:18:28.755Z,90.81
2018-06-17T04:19:28.928Z,91.00
2018-06-17T04:20:29.097Z,90.81
2018-06-17T04:21:29.385Z,90.42
2018-06-17T04:22:29.461Z,90.04
2018-06-17T04:23:29.656Z,90.42
2018-06-17T04:24:29.841Z,90.42
2018-06-17T04:25:32.675Z,89.89
2018-06-17T04:26:33.786Z,90.04
2018-06-17T04:27:30.352Z,89.75
2018-06-17T04:28:30.524Z,89.70
2018-06-17T04:29:33.706Z,89.85
2018-06-17T04:30:32.474Z,90.33
2018-06-17T04:31:32.804Z,90.08
2018-06-17T04:32:33.707Z,90.08
2018-06-17T04:33:31.359Z,90.08
2018-06-17T04:34:33.447Z,89.99
2018-06-17T04:35:34.368Z,89.61
2018-06-17T04:36:32.846Z,89.51
2018-06-17T04:37:33.887Z,89.70
2018-06-17T04:38:33.662Z,89.32
2018-06-17T04:39:32.315Z,89.99
2018-06-17T04:40:36.340Z,89.51
2018-06-17T04:41:34.905Z,89.61
2018-06-17T04:42:35.536Z,89.61
2018-06-17T04:43:39.277Z,90.28
2018-06-17T04:44:35.533Z,90.18
2018-06-17T04:45:34.606Z,90.28
2018-06-17T04:46:33.483Z,90.47
2018-06-17T04:47:34.929Z,90.28
2018-06-17T04:48:35.933Z,90.28
2018-06-17T04:49:35.627Z,90.37
2018-06-17T04:50:36.108Z,90.03
2018-06-17T04:51:36.758Z,89.75
2018-06-17T04:52:38.015Z,89.94
2018-06-17T04:53:37.601Z,89.65
2018-06-17T04:54:38.244Z,89.65
2018-06-17T04:55:38.094Z,89.94
2018-06-17T04:56:37.283Z,90.13
2018-06-17T04:57:39.369Z,90.32
2018-06-17T04:58:38.147Z,89.55
2018-06-17T04:59:40.419Z,88.49
2018-06-17T05:00:40.066Z,88.21
2018-06-17T05:01:38.418Z,88.59
2018-06-17T05:02:37.890Z,88.69
2018-06-17T05:03:40.430Z,88.21
2018-06-17T05:04:39.067Z,88.02
2018-06-17T05:05:39.593Z,87.73
2018-06-17T05:06:39.182Z,88.35
2018-06-17T05:07:40.264Z,88.06
2018-06-17T05:08:38.233Z,87.77
2018-06-17T05:09:39.718Z,87.58
2018-06-17T05:10:39.123Z,88.25
2018-06-17T05:11:40.069Z,87.96
2018-06-17T05:12:39.196Z,88.35
2018-06-17T05:13:40.746Z,87.96
2018-06-17T05:14:39.457Z,87.77
2018-06-17T05:15:41.074Z,87.49
2018-06-17T05:16:39.169Z,87.29
2018-06-17T05:17:39.904Z,86.76
2018-06-17T05:18:41.116Z,86.57
2018-06-17T05:19:39.708Z,86.66
2018-06-17T05:20:40.007Z,86.76
2018-06-17T05:21:40.876Z,87.05
2018-06-17T05:22:41.164Z,86.72
2018-06-17T05:23:42.484Z,87.34
2018-06-17T05:24:42.707Z,87.15
2018-06-17T05:25:40.480Z,87.15
2018-06-17T05:26:42.416Z,87.05
2018-06-17T05:27:44.607Z,87.24
2018-06-17T05:28:40.548Z,87.05
2018-06-17T05:29:40.722Z,86.95
2018-06-17T05:30:40.897Z,86.85
2018-06-17T05:31:41.074Z,86.28
2018-06-17T05:32:41.254Z,86.38
2018-06-17T05:33:41.433Z,85.94
2018-06-17T05:34:41.610Z,85.94
2018-06-17T05:35:41.803Z,86.04
2018-06-17T05:36:43.602Z,85.75
2018-06-17T05:37:42.180Z,85.36
2018-06-17T05:38:42.370Z,84.98
2018-06-17T05:39:44.006Z,84.78
2018-06-17T05:40:44.097Z,84.11
2018-06-17T05:41:42.968Z,84.21
2018-06-17T05:42:43.138Z,85.02
2018-06-17T05:43:43.682Z,84.92
2018-06-17T05:44:44.931Z,84.34
2018-06-17T05:45:43.595Z,84.06
2018-06-17T05:46:47.183Z,84.44
2018-06-17T05:47:44.469Z,83.92
2018-06-17T05:48:44.070Z,84.01
2018-06-17T05:49:44.254Z,84.30
2018-06-17T05:50:44.423Z,84.30
2018-06-17T05:51:44.600Z,84.01
2018-06-17T05:52:44.779Z,84.25
2018-06-17T05:53:44.955Z,83.96
2018-06-17T05:54:45.139Z,83.39
2018-06-17T05:55:45.347Z,83.86
2018-06-17T05:56:45.496Z,83.58
2018-06-17T05:57:45.675Z,82.61
2018-06-17T05:58:45.853Z,83.09
2018-06-17T05:59:46.031Z,82.37
2018-06-17T06:00:46.209Z,82.27
2018-06-17T06:01:46.397Z,81.50
2018-06-17T06:02:46.584Z,81.50
2018-06-17T06:03:46.770Z,80.68
2018-06-17T06:04:46.952Z,80.15
2018-06-17T06:05:47.137Z,80.06
2018-06-17T06:06:47.308Z,79.86
2018-06-17T06:07:47.484Z,79.00
2018-06-17T06:08:47.656Z,79.03
2018-06-17T06:09:47.834Z,78.56
2018-06-17T06:10:48.004Z,78.17
2018-06-17T06:11:48.185Z,78.46
2018-06-17T06:12:48.352Z,77.78
2018-06-17T06:13:48.532Z,78.27
2018-06-17T06:14:48.708Z,77.98
2018-06-17T06:15:48.885Z,78.27
2018-06-17T06:16:49.065Z,78.17
2018-06-17T06:17:49.246Z,78.17
2018-06-17T06:18:49.423Z,77.88
2018-06-17T06:19:52.737Z,77.11
2018-06-17T06:20:49.926Z,76.28
2018-06-17T06:21:49.873Z,76.48
2018-06-17T06:22:50.060Z,76.38
2018-06-17T06:23:50.241Z,76.38
2018-06-17T06:24:50.475Z,74.93
2018-06-17T06:25:50.596Z,74.20
2018-06-17T06:26:50.773Z,74.68
2018-06-17T06:27:50.952Z,75.55
2018-06-17T06:28:51.129Z,75.07
2018-06-17T06:29:51.308Z,76.42
2018-06-17T06:30:51.542Z,75.65
2018-06-17T06:31:51.659Z,74.58
2018-06-17T06:32:53.381Z,74.40
2018-06-17T06:33:52.049Z,74.33
2018-06-17T06:34:55.408Z,74.33
2018-06-17T06:35:52.393Z,74.43
2018-06-17T06:36:53.593Z,73.57
2018-06-17T06:37:54.829Z,72.34
2018-06-17T06:38:52.880Z,68.13
2018-06-17T06:39:54.304Z,67.20
2018-06-17T06:40:53.213Z,66.43
2018-06-17T06:41:53.393Z,65.08
2018-06-17T06:42:53.584Z,65.37
2018-06-17T06:43:53.746Z,66.20
2018-06-17T06:44:53.933Z,65.91
2018-06-17T06:45:54.118Z,64.98
2018-06-17T06:46:54.297Z,62.73
2018-06-17T06:47:54.476Z,60.89
2018-06-17T06:48:54.657Z,61.15
2018-06-17T06:49:54.840Z,61.99
2018-06-17T06:50:55.051Z,61.99
2018-06-17T06:51:55.203Z,62.18
2018-06-17T06:52:55.386Z,61.70
2018-06-17T06:53:55.569Z,62.37
2018-06-17T06:54:55.752Z,63.05
2018-06-17T06:55:55.928Z,61.99
2018-06-17T06:56:56.110Z,60.14
2018-06-17T06:57:56.291Z,56.92
2018-06-17T06:58:57.950Z,55.22
2018-06-17T06:59:59.660Z,54.74
2018-06-17T07:00:59.758Z,54.67
2018-06-17T07:01:58.939Z,53.15
2018-06-17T07:02:59.261Z,50.38
2018-06-17T07:03:58.845Z,49.24
2018-06-17T07:04:57.613Z,49.17
2018-06-17T07:05:57.790Z,47.47
2018-06-17T07:06:57.975Z,45.35
2018-06-17T07:07:58.162Z,45.08
2018-06-17T07:08:58.341Z,44.38
2018-06-17T07:09:58.572Z,45.69
2018-06-17T07:10:58.717Z,46.81
2018-06-17T07:11:59.092Z,48.39
2018-06-17T07:12:59.441Z,49.63
2018-06-17T07:13:59.514Z,51.06
2018-06-17T07:14:59.653Z,52.49
2018-06-17T07:15:59.843Z,53.26
2018-06-17T07:17:00.030Z,52.15
2018-06-17T07:18:00.327Z,51.14
2018-06-17T07:19:00.508Z,49.54
2018-06-17T07:20:00.317Z,47.34
2018-06-17T07:21:00.510Z,44.38
2018-06-17T07:22:00.694Z,43.15
2018-06-17T07:23:00.882Z,42.40
2018-06-17T07:24:01.244Z,42.76
2018-06-17T07:25:01.652Z,42.78
2018-06-17T07:26:01.541Z,42.45
2018-06-17T07:27:01.614Z,41.30
2018-06-17T07:28:02.157Z,40.35
2018-06-17T07:29:02.124Z,39.92
2018-06-17T07:30:02.336Z,38.82
2018-06-17T07:31:02.303Z,39.57
2018-06-17T07:32:02.526Z,39.22
2018-06-17T07:33:02.715Z,37.89
2018-06-17T07:34:02.971Z,38.69
2018-06-17T07:35:03.147Z,38.79
2018-06-17T07:36:03.781Z,38.53
2018-06-17T07:37:03.502Z,37.29
2018-06-17T07:38:03.692Z,36.28
2018-06-17T07:39:03.881Z,34.06
2018-06-17T07:40:04.112Z,33.90
2018-06-17T07:41:04.296Z,33.53
2018-06-17T07:42:04.488Z,31.87
2018-06-17T07:43:04.673Z,31.09
2018-06-17T07:44:04.866Z,30.45
2018-06-17T07:45:05.065Z,30.14
2018-06-17T07:46:05.254Z,31.35
2018-06-17T07:47:05.446Z,31.27
2018-06-17T07:48:05.630Z,31.09
2018-06-17T07:49:05.818Z,30.12
2018-06-17T07:50:06.039Z,29.52
2018-06-17T07:51:06.224Z,28.89
2018-06-17T07:52:06.415Z,27.64
2018-06-17T07:53:06.605Z,26.68
2018-06-17T07:54:06.829Z,25.89
2018-06-17T07:55:07.010Z,25.20
2018-06-17T07:56:07.235Z,25.32
2018-06-17T07:57:07.405Z,24.64
2018-06-17T07:58:07.598Z,25.31
2018-06-17T07:59:07.797Z,24.41
2018-06-17T08:00:07.987Z,24.52
2018-06-17T08:01:08.174Z,23.84
2018-06-17T08:02:08.432Z,23.75
2018-06-17T08:03:08.586Z,23.16
2018-06-17T08:04:08.776Z,22.97
2018-06-17T08:05:08.977Z,22.77
2018-06-17T08:06:09.173Z,23.24
2018-06-17T08:07:09.360Z,24.07
2018-06-17T08:08:09.565Z,24.29
2018-06-17T08:09:09.756Z,24.12
2018-06-17T08:10:10.045Z,22.96
2018-06-17T08:11:10.082Z,23.04
2018-06-17T08:12:10.317Z,23.53
2018-06-17T08:13:10.472Z,23.74
2018-06-17T08:14:10.664Z,23.18
2018-06-17T08:15:10.859Z,22.12
2018-06-17T08:16:11.106Z,22.24
2018-06-17T08:17:11.317Z,21.62
2018-06-17T08:18:11.847Z,22.47
2018-06-17T08:19:11.650Z,23.24
2018-06-17T08:20:11.934Z,24.87
2018-06-17T08:21:12.049Z,25.28
2018-06-17T08:22:12.264Z,25.45
2018-06-17T08:23:12.445Z,24.91
2018-06-17T08:24:12.667Z,24.68
2018-06-17T08:25:12.843Z,24.43
2018-06-17T08:26:13.056Z,23.58
2018-06-17T08:27:13.273Z,22.67
2018-06-17T08:28:13.489Z,24.04
2018-06-17T08:29:13.799Z,23.39
2018-06-17T08:30:13.825Z,22.99
2018-06-17T08:31:14.021Z,24.12
2018-06-17T08:32:14.207Z,26.59
2018-06-17T08:33:14.395Z,28.68
2018-06-17T08:34:14.705Z,30.10
2018-06-17T08:35:14.747Z,31.21
2018-06-17T08:36:15.032Z,29.11
2018-06-17T08:37:15.149Z,27.37
2018-06-17T08:38:15.348Z,27.83
2018-06-17T08:39:15.547Z,28.91
2018-06-17T08:40:15.738Z,29.74
2018-06-17T08:41:16.573Z,30.32
2018-06-17T08:42:16.436Z,31.15
2018-06-17T08:43:16.210Z,31.62
2018-06-17T08:44:16.395Z,33.93
2018-06-17T08:45:16.590Z,34.79
2018-06-17T08:46:16.780Z,34.59
2018-06-17T08:47:16.988Z,31.64
2018-06-17T08:48:17.245Z,30.96
2018-06-17T08:49:17.399Z,33.46
2018-06-17T08:50:17.584Z,35.38
2018-06-17T08:51:17.785Z,36.32
2018-06-17T08:52:17.995Z,37.74
2018-06-17T08:53:18.158Z,40.41
2018-06-17T08:54:18.403Z,41.33
2018-06-17T08:55:18.537Z,42.09
2018-06-17T08:56:18.739Z,42.77
2018-06-17T08:57:18.958Z,44.71
2018-06-17T08:58:20.332Z,43.82
2018-06-17T08:59:19.317Z,44.47
2018-06-17T09:00:19.512Z,45.03
2018-06-17T09:01:19.696Z,45.30
2018-06-17T09:02:21.459Z,45.98
2018-06-17T09:03:20.592Z,45.30
2018-06-17T09:04:21.440Z,47.24
2018-06-17T09:05:21.571Z,47.52
2018-06-17T09:06:23.068Z,47.33
2018-06-17T09:07:22.372Z,48.30
2018-06-17T09:08:22.140Z,49.07
2018-06-17T09:09:23.131Z,48.49
2018-06-17T09:10:22.017Z,48.95
2018-06-17T09:11:23.275Z,48.47
2018-06-17T09:12:22.148Z,49.05
2018-06-17T09:13:24.938Z,49.15
2018-06-17T09:14:22.867Z,49.51
2018-06-17T09:15:23.249Z,49.12
2018-06-17T09:16:23.645Z,49.32
2018-06-17T09:17:23.784Z,46.24
2018-06-17T09:18:23.374Z,43.32
2018-06-17T09:19:24.065Z,41.05
2018-06-17T09:20:24.320Z,40.01
2018-06-17T09:21:23.843Z,39.49
2018-06-17T09:22:24.248Z,40.42
2018-06-17T09:23:24.369Z,40.89
2018-06-17T09:24:24.953Z,41.77
2018-06-17T09:25:26.134Z,41.47
2018-06-17T09:26:24.708Z,42.69
2018-06-17T09:27:25.286Z,43.26
2018-06-17T09:28:25.409Z,43.82
2018-06-17T09:29:25.728Z,44.10
2018-06-17T09:30:25.675Z,44.10
2018-06-17T09:31:26.298Z,44.10
2018-06-17T09:32:26.553Z,44.88
2018-06-17T09:33:26.170Z,45.34
2018-06-17T09:34:26.982Z,46.97
2018-06-17T09:35:28.804Z,46.97
2018-06-17T09:36:26.913Z,47.33
2018-06-17T09:37:29.394Z,47.62
2018-06-17T09:38:28.083Z,46.44
2018-06-17T09:39:27.541Z,46.73
2018-06-17T09:40:28.014Z,46.53
2018-06-17T09:41:28.254Z,47.28
2018-06-17T09:42:28.840Z,48.06
2018-06-17T09:43:28.531Z,48.83
2018-06-17T09:44:28.233Z,48.54
2018-06-17T09:45:29.016Z,49.02
2018-06-17T09:46:30.516Z,49.32
2018-06-17T09:47:28.433Z,48.61
2018-06-17T09:48:29.723Z,47.89
2018-06-17T09:49:31.944Z,47.50
2018-06-17T09:50:30.004Z,47.21
2018-06-17T09:51:28.840Z,47.24
2018-06-17T09:52:29.744Z,45.34
2018-06-17T09:53:29.708Z,44.42
2018-06-17T09:54:30.932Z,42.54
2018-06-17T09:55:30.917Z,41.42
2018-06-17T09:56:30.962Z,39.39
2018-06-17T09:57:30.911Z,39.80
2018-06-17T09:58:32.645Z,39.00
2018-06-17T09:59:31.021Z,38.71
2018-06-17T10:00:31.151Z,39.29
2018-06-17T10:01:31.311Z,39.78
2018-06-17T10:02:31.570Z,39.94
2018-06-17T10:03:32.558Z,40.97
2018-06-17T10:04:32.598Z,42.33
2018-06-17T10:05:33.473Z,40.66
2018-06-17T10:06:32.269Z,41.14
2018-06-17T10:07:32.854Z,41.33
2018-06-17T10:08:31.531Z,42.29
2018-06-17T10:09:31.712Z,43.86
2018-06-17T10:10:31.893Z,43.66
2018-06-17T10:11:32.083Z,43.88
2018-06-17T10:12:32.280Z,41.64
2018-06-17T10:13:32.472Z,42.33
2018-06-17T10:14:32.655Z,40.97
2018-06-17T10:15:32.843Z,39.32
2018-06-17T10:16:33.077Z,39.80
2018-06-17T10:17:33.140Z,39.24
2018-06-17T10:18:33.328Z,40.17
2018-06-17T10:19:33.516Z,39.67
2018-06-17T10:20:33.689Z,41.17
2018-06-17T10:21:33.884Z,42.07
2018-06-17T10:22:34.070Z,42.26
2018-06-17T10:23:34.263Z,42.07
2018-06-17T10:24:34.438Z,42.46
2018-06-17T10:25:34.617Z,41.17
2018-06-17T10:26:34.804Z,41.17
2018-06-17T10:27:34.986Z,41.17
2018-06-17T10:28:35.170Z,41.86
2018-06-17T10:29:35.369Z,42.05
2018-06-17T10:30:35.536Z,42.22
2018-06-17T10:31:35.727Z,42.61
2018-06-17T10:32:35.908Z,44.06
2018-06-17T10:33:36.096Z,44.26
2018-06-17T10:34:36.286Z,44.33
2018-06-17T10:35:36.472Z,45.30
2018-06-17T10:36:36.655Z,45.40
2018-06-17T10:37:36.850Z,45.88
2018-06-17T10:38:39.275Z,45.01
2018-06-17T10:39:37.313Z,44.53
2018-06-17T10:40:37.349Z,44.23
2018-06-17T10:41:38.356Z,44.04
2018-06-17T10:42:39.264Z,44.62
2018-06-17T10:43:37.973Z,44.79
2018-06-17T10:44:37.977Z,45.28
2018-06-17T10:45:38.007Z,44.98
2018-06-17T10:46:38.197Z,44.98
2018-06-17T10:47:38.391Z,46.34
2018-06-17T10:48:38.578Z,46.83
2018-06-17T10:49:38.760Z,46.32
2018-06-17T10:50:38.953Z,46.61
2018-06-17T10:51:39.150Z,47.45
2018-06-17T10:52:39.324Z,48.23
2018-06-17T10:53:39.512Z,48.61
2018-06-17T10:54:39.699Z,49.12
2018-06-17T10:55:39.896Z,49.87
2018-06-17T10:56:40.073Z,49.10
2018-06-17T10:57:40.263Z,48.23
2018-06-17T10:58:40.450Z,47.84
2018-06-17T10:59:41.174Z,48.42
2018-06-17T11:00:43.830Z,47.86
2018-06-17T11:01:41.654Z,47.86
2018-06-17T11:02:41.160Z,50.38
2018-06-17T11:03:43.368Z,49.80
2018-06-17T11:04:41.485Z,49.90
2018-06-17T11:05:41.838Z,48.64
2018-06-17T11:06:41.857Z,48.27
2018-06-17T11:07:42.054Z,47.79
2018-06-17T11:08:42.233Z,47.43
2018-06-17T11:09:42.420Z,47.43
2018-06-17T11:10:42.736Z,46.66
2018-06-17T11:11:42.822Z,45.68
2018-06-17T11:12:43.005Z,46.26
2018-06-17T11:13:43.189Z,46.94
2018-06-17T11:14:43.375Z,46.66
2018-06-17T11:15:43.559Z,45.78
2018-06-17T11:16:43.754Z,46.36
2018-06-17T11:17:43.931Z,47.02
2018-06-17T11:18:44.110Z,46.92
2018-06-17T11:19:44.332Z,46.46
2018-06-17T11:20:44.483Z,46.67
2018-06-17T11:21:44.664Z,45.81
2018-06-17T11:22:44.857Z,45.42
2018-06-17T11:23:45.056Z,44.57
2018-06-17T11:24:45.237Z,44.27
2018-06-17T11:25:47.848Z,44.35
2018-06-17T11:26:47.661Z,44.35
2018-06-17T11:27:47.507Z,44.26
2018-06-17T11:28:47.422Z,44.16
2018-06-17T11:29:48.215Z,45.03
2018-06-17T11:30:47.794Z,45.34
2018-06-17T11:31:48.685Z,44.86
2018-06-17T11:32:48.539Z,43.77
2018-06-17T11:33:48.580Z,44.26
2018-06-17T11:34:49.419Z,43.85
2018-06-17T11:35:49.267Z,44.53
2018-06-17T11:36:48.731Z,44.23
2018-06-17T11:37:50.845Z,44.81
2018-06-17T11:38:49.184Z,43.85
2018-06-17T11:39:50.934Z,43.68
2018-06-17T11:40:49.641Z,44.06
2018-06-17T11:41:52.791Z,44.84
2018-06-17T11:42:52.951Z,44.06
2018-06-17T11:43:49.934Z,44.35
2018-06-17T11:44:51.613Z,43.58
2018-06-17T11:45:51.778Z,44.04
2018-06-17T11:46:51.620Z,44.43
2018-06-17T11:47:50.915Z,44.50
2018-06-17T11:48:51.882Z,45.57
2018-06-17T11:49:50.852Z,45.57
2018-06-17T11:50:51.549Z,45.78
2018-06-17T11:51:53.312Z,46.00
2018-06-17T11:52:52.136Z,45.81
2018-06-17T11:53:52.379Z,44.84
2018-06-17T11:54:53.596Z,44.06
2018-06-17T11:55:53.513Z,45.01
2018-06-17T11:56:52.006Z,46.00
2018-06-17T11:57:52.526Z,45.61
2018-06-17T11:58:53.076Z,44.74
2018-06-17T11:59:53.029Z,44.84
2018-06-17T12:00:52.995Z,44.43
2018-06-17T12:01:52.798Z,44.13
2018-06-17T12:02:53.162Z,44.04
2018-06-17T12:03:53.462Z,45.01
2018-06-17T12:04:52.808Z,44.70
2018-06-17T12:05:53.438Z,45.86
2018-06-17T12:06:53.919Z,46.75
2018-06-17T12:07:53.732Z,45.47
2018-06-17T12:08:54.843Z,45.37
2018-06-17T12:09:54.448Z,45.37
2018-06-17T12:10:54.567Z,46.34
2018-06-17T12:11:55.522Z,45.28
2018-06-17T12:12:54.936Z,45.37
2018-06-17T12:13:54.379Z,44.12
2018-06-17T12:14:54.965Z,43.92
2018-06-17T12:15:54.763Z,44.40
2018-06-17T12:16:56.069Z,44.31
2018-06-17T12:17:54.895Z,44.21
2018-06-17T12:18:56.469Z,44.31
2018-06-17T12:19:56.232Z,44.79
2018-06-17T12:20:58.033Z,44.12
2018-06-17T12:21:56.312Z,44.12
2018-06-17T12:22:57.261Z,44.12
2018-06-17T12:23:56.266Z,45.08
2018-06-17T12:24:56.705Z,44.50
2018-06-17T12:25:58.197Z,44.91
2018-06-17T12:26:58.143Z,44.72
2018-06-17T12:27:58.224Z,45.10
2018-06-17T12:28:58.380Z,44.74
2018-06-17T12:29:58.312Z,43.96
2018-06-17T12:30:59.119Z,43.77
2018-06-17T12:31:58.438Z,44.37
2018-06-17T12:32:58.963Z,44.09
2018-06-17T12:34:00.750Z,44.37
2018-06-17T12:34:57.659Z,44.09
2018-06-17T12:35:59.894Z,44.20
2018-06-17T12:36:59.437Z,44.01
2018-06-17T12:37:59.067Z,43.52
2018-06-17T12:39:00.088Z,42.94
2018-06-17T12:40:00.313Z,43.04
2018-06-17T12:41:02.263Z,43.62
2018-06-17T12:42:00.422Z,43.16
2018-06-17T12:43:02.824Z,42.67
2018-06-17T12:44:01.397Z,41.70
2018-06-17T12:44:59.215Z,42.17
2018-06-17T12:46:01.695Z,43.33
2018-06-17T12:47:01.551Z,43.89
2018-06-17T12:47:59.968Z,45.03
2018-06-17T12:48:59.941Z,45.90
2018-06-17T12:50:00.079Z,47.26
2018-06-17T12:51:00.303Z,46.36
2018-06-17T12:52:00.511Z,47.21
2018-06-17T12:53:00.734Z,47.31
2018-06-17T12:54:00.976Z,47.50
2018-06-17T12:55:01.249Z,47.89